sensor_id;sensor_type;location;lat;lon;timestamp;P1;durP1;ratioP1;P2;durP2;ratioP2
27580;SDS011;63557;52.302;7.964;2023-04-24T00:02:15;3.00;;;2.70;;
27580;SDS011;63557;52.302;7.964;2023-04-24T00:07:16;5.95;;;2.80;;
27580;SDS011;63557;52.302;7.964;2023-04-24T00:12:20;3.20;;;2.90;;
27580;SDS011;63557;52.302;7.964;2023-04-24T00:17:20;4.07;;;3.27;;
27580;SDS011;63557;52.302;7.964;2023-04-24T00:22:21;4.03;;;3.60;;
27580;SDS011;63557;52.302;7.964;2023-04-24T00:27:21;3.47;;;3.17;;
27580;SDS011;63557;52.302;7.964;2023-04-24T00:32:21;3.70;;;3.40;;
27580;SDS011;63557;52.302;7.964;2023-04-24T00:37:22;3.85;;;3.55;;
27580;SDS011;63557;52.302;7.964;2023-04-24T00:42:23;3.97;;;3.25;;
27580;SDS011;63557;52.302;7.964;2023-04-24T00:47:24;4.05;;;3.40;;
27580;SDS011;63557;52.302;7.964;2023-04-24T00:52:25;5.80;;;4.20;;
27580;SDS011;63557;52.302;7.964;2023-04-24T00:57:26;4.30;;;3.90;;
27580;SDS011;63557;52.302;7.964;2023-04-24T01:02:26;4.43;;;4.00;;
27580;SDS011;63557;52.302;7.964;2023-04-24T01:07:26;3.78;;;3.47;;
27580;SDS011;63557;52.302;7.964;2023-04-24T01:12:27;4.13;;;3.65;;
27580;SDS011;63557;52.302;7.964;2023-04-24T01:17:28;6.25;;;3.13;;
27580;SDS011;63557;52.302;7.964;2023-04-24T01:22:28;4.13;;;3.10;;
27580;SDS011;63557;52.302;7.964;2023-04-24T01:27:28;4.43;;;3.03;;
27580;SDS011;63557;52.302;7.964;2023-04-24T01:32:29;3.53;;;3.22;;
27580;SDS011;63557;52.302;7.964;2023-04-24T01:37:29;4.45;;;2.80;;
27580;SDS011;63557;52.302;7.964;2023-04-24T01:42:31;2.97;;;2.67;;
27580;SDS011;63557;52.302;7.964;2023-04-24T01:47:33;3.45;;;2.60;;
27580;SDS011;63557;52.302;7.964;2023-04-24T01:52:33;2.88;;;2.10;;
27580;SDS011;63557;52.302;7.964;2023-04-24T01:57:37;2.88;;;2.40;;
27580;SDS011;63557;52.302;7.964;2023-04-24T02:02:39;2.50;;;2.28;;
27580;SDS011;63557;52.302;7.964;2023-04-24T02:07:39;3.03;;;2.47;;
27580;SDS011;63557;52.302;7.964;2023-04-24T02:12:40;2.37;;;2.17;;
27580;SDS011;63557;52.302;7.964;2023-04-24T02:17:40;3.33;;;2.80;;
27580;SDS011;63557;52.302;7.964;2023-04-24T02:22:40;6.75;;;3.30;;
27580;SDS011;63557;52.302;7.964;2023-04-24T02:27:41;3.40;;;2.43;;
27580;SDS011;63557;52.302;7.964;2023-04-24T02:32:41;3.03;;;2.73;;
27580;SDS011;63557;52.302;7.964;2023-04-24T02:37:44;3.88;;;3.30;;
27580;SDS011;63557;52.302;7.964;2023-04-24T02:42:46;5.03;;;3.22;;
27580;SDS011;63557;52.302;7.964;2023-04-24T02:47:46;2.80;;;2.60;;
27580;SDS011;63557;52.302;7.964;2023-04-24T02:52:46;3.00;;;2.80;;
27580;SDS011;63557;52.302;7.964;2023-04-24T02:57:47;3.43;;;2.90;;
27580;SDS011;63557;52.302;7.964;2023-04-24T03:02:47;3.00;;;2.70;;
27580;SDS011;63557;52.302;7.964;2023-04-24T03:07:49;3.40;;;3.10;;
27580;SDS011;63557;52.302;7.964;2023-04-24T03:12:49;3.63;;;3.30;;
27580;SDS011;63557;52.302;7.964;2023-04-24T03:17:52;3.58;;;3.25;;
27580;SDS011;63557;52.302;7.964;2023-04-24T03:22:52;4.63;;;3.50;;
27580;SDS011;63557;52.302;7.964;2023-04-24T03:27:54;5.22;;;4.63;;
27580;SDS011;63557;52.302;7.964;2023-04-24T03:33:08;5.90;;;5.35;;
27580;SDS011;63557;52.302;7.964;2023-04-24T03:38:14;7.50;;;5.85;;
27580;SDS011;63557;52.302;7.964;2023-04-24T03:43:43;9.90;;;6.60;;
27580;SDS011;63557;52.302;7.964;2023-04-24T03:48:44;7.97;;;7.22;;
27580;SDS011;63557;52.302;7.964;2023-04-24T03:53:45;7.78;;;6.97;;
27580;SDS011;63557;52.302;7.964;2023-04-24T03:58:50;10.70;;;8.85;;
27580;SDS011;63557;52.302;7.964;2023-04-24T04:03:51;11.70;;;9.95;;
27580;SDS011;63557;52.302;7.964;2023-04-24T04:08:55;12.13;;;10.38;;
27580;SDS011;63557;52.302;7.964;2023-04-24T04:13:55;14.10;;;12.38;;
27580;SDS011;63557;52.302;7.964;2023-04-24T04:18:56;14.43;;;12.93;;
27580;SDS011;63557;52.302;7.964;2023-04-24T04:23:57;19.15;;;14.77;;
27580;SDS011;63557;52.302;7.964;2023-04-24T04:29:04;26.30;;;17.45;;
27580;SDS011;63557;52.302;7.964;2023-04-24T04:34:08;21.25;;;18.25;;
27580;SDS011;63557;52.302;7.964;2023-04-24T04:39:09;25.80;;;16.92;;
27580;SDS011;63557;52.302;7.964;2023-04-24T04:44:23;23.50;;;16.83;;
27580;SDS011;63557;52.302;7.964;2023-04-24T04:49:25;24.50;;;17.98;;
27580;SDS011;63557;52.302;7.964;2023-04-24T04:54:28;25.15;;;18.02;;
27580;SDS011;63557;52.302;7.964;2023-04-24T04:59:30;23.23;;;18.70;;
27580;SDS011;63557;52.302;7.964;2023-04-24T05:04:36;26.52;;;20.02;;
27580;SDS011;63557;52.302;7.964;2023-04-24T05:09:37;29.17;;;20.73;;
27580;SDS011;63557;52.302;7.964;2023-04-24T05:14:39;25.17;;;20.63;;
27580;SDS011;63557;52.302;7.964;2023-04-24T05:19:41;23.83;;;20.10;;
27580;SDS011;63557;52.302;7.964;2023-04-24T05:24:42;29.20;;;21.85;;
27580;SDS011;63557;52.302;7.964;2023-04-24T05:30:01;25.40;;;18.95;;
27580;SDS011;63557;52.302;7.964;2023-04-24T05:35:01;24.92;;;18.95;;
27580;SDS011;63557;52.302;7.964;2023-04-24T05:40:02;30.17;;;21.75;;
27580;SDS011;63557;52.302;7.964;2023-04-24T05:45:05;30.70;;;22.52;;
27580;SDS011;63557;52.302;7.964;2023-04-24T05:50:05;31.08;;;23.80;;
27580;SDS011;63557;52.302;7.964;2023-04-24T05:55:06;31.75;;;22.23;;
27580;SDS011;63557;52.302;7.964;2023-04-24T06:00:09;38.08;;;27.00;;
27580;SDS011;63557;52.302;7.964;2023-04-24T06:05:21;39.03;;;25.17;;
27580;SDS011;63557;52.302;7.964;2023-04-24T06:10:22;38.65;;;26.27;;
27580;SDS011;63557;52.302;7.964;2023-04-24T06:15:24;38.45;;;28.35;;
27580;SDS011;63557;52.302;7.964;2023-04-24T06:20:31;39.75;;;28.17;;
27580;SDS011;63557;52.302;7.964;2023-04-24T06:25:31;45.38;;;26.83;;
27580;SDS011;63557;52.302;7.964;2023-04-24T06:30:32;34.30;;;26.50;;
27580;SDS011;63557;52.302;7.964;2023-04-24T06:35:32;36.50;;;26.17;;
27580;SDS011;63557;52.302;7.964;2023-04-24T06:40:32;36.67;;;26.13;;
27580;SDS011;63557;52.302;7.964;2023-04-24T06:45:33;42.78;;;27.50;;
27580;SDS011;63557;52.302;7.964;2023-04-24T06:50:33;44.53;;;28.70;;
27580;SDS011;63557;52.302;7.964;2023-04-24T06:55:35;40.35;;;26.90;;
27580;SDS011;63557;52.302;7.964;2023-04-24T07:00:35;39.83;;;26.75;;
27580;SDS011;63557;52.302;7.964;2023-04-24T07:05:36;39.93;;;28.17;;
27580;SDS011;63557;52.302;7.964;2023-04-24T07:10:38;34.53;;;25.85;;
27580;SDS011;63557;52.302;7.964;2023-04-24T07:15:38;32.60;;;23.38;;
27580;SDS011;63557;52.302;7.964;2023-04-24T07:20:39;38.63;;;25.90;;
27580;SDS011;63557;52.302;7.964;2023-04-24T07:25:40;30.83;;;22.92;;
27580;SDS011;63557;52.302;7.964;2023-04-24T07:30:41;37.42;;;25.95;;
27580;SDS011;63557;52.302;7.964;2023-04-24T07:35:41;34.47;;;23.93;;
27580;SDS011;63557;52.302;7.964;2023-04-24T07:40:42;30.38;;;21.05;;
27580;SDS011;63557;52.302;7.964;2023-04-24T07:45:42;33.15;;;22.60;;
27580;SDS011;63557;52.302;7.964;2023-04-24T07:50:43;33.35;;;22.70;;
27580;SDS011;63557;52.302;7.964;2023-04-24T07:55:44;22.95;;;20.02;;
27580;SDS011;63557;52.302;7.964;2023-04-24T08:00:44;31.13;;;22.38;;
27580;SDS011;63557;52.302;7.964;2023-04-24T08:05:45;28.98;;;23.63;;
27580;SDS011;63557;52.302;7.964;2023-04-24T08:10:45;31.67;;;22.20;;
27580;SDS011;63557;52.302;7.964;2023-04-24T08:15:46;26.38;;;22.08;;
27580;SDS011;63557;52.302;7.964;2023-04-24T08:20:46;26.27;;;20.08;;
27580;SDS011;63557;52.302;7.964;2023-04-24T08:25:47;25.50;;;21.73;;
27580;SDS011;63557;52.302;7.964;2023-04-24T08:30:48;25.65;;;18.98;;
27580;SDS011;63557;52.302;7.964;2023-04-24T08:35:54;21.65;;;18.70;;
27580;SDS011;63557;52.302;7.964;2023-04-24T08:40:54;19.98;;;17.88;;
27580;SDS011;63557;52.302;7.964;2023-04-24T08:45:56;19.40;;;17.30;;
27580;SDS011;63557;52.302;7.964;2023-04-24T08:50:57;21.70;;;17.20;;
27580;SDS011;63557;52.302;7.964;2023-04-24T08:55:57;18.98;;;16.90;;
27580;SDS011;63557;52.302;7.964;2023-04-24T09:00:58;18.10;;;16.05;;
27580;SDS011;63557;52.302;7.964;2023-04-24T09:05:59;19.55;;;16.15;;
27580;SDS011;63557;52.302;7.964;2023-04-24T09:11:00;20.90;;;16.83;;
27580;SDS011;63557;52.302;7.964;2023-04-24T09:16:03;20.75;;;16.30;;
27580;SDS011;63557;52.302;7.964;2023-04-24T09:21:04;17.60;;;15.77;;
27580;SDS011;63557;52.302;7.964;2023-04-24T09:26:06;20.38;;;15.15;;
27580;SDS011;63557;52.302;7.964;2023-04-24T09:31:12;15.90;;;14.10;;
27580;SDS011;63557;52.302;7.964;2023-04-24T09:36:15;17.42;;;13.80;;
27580;SDS011;63557;52.302;7.964;2023-04-24T09:41:17;16.58;;;14.32;;
27580;SDS011;63557;52.302;7.964;2023-04-24T09:46:18;16.43;;;14.83;;
27580;SDS011;63557;52.302;7.964;2023-04-24T09:51:18;16.80;;;14.43;;
27580;SDS011;63557;52.302;7.964;2023-04-24T09:56:33;17.40;;;15.52;;
27580;SDS011;63557;52.302;7.964;2023-04-24T10:01:34;15.07;;;13.60;;
27580;SDS011;63557;52.302;7.964;2023-04-24T10:06:34;11.88;;;9.73;;
27580;SDS011;63557;52.302;7.964;2023-04-24T10:11:35;8.35;;;7.55;;
27580;SDS011;63557;52.302;7.964;2023-04-24T10:16:37;6.10;;;5.50;;
27580;SDS011;63557;52.302;7.964;2023-04-24T10:21:38;6.95;;;6.10;;
27580;SDS011;63557;52.302;7.964;2023-04-24T10:26:42;8.90;;;6.25;;
27580;SDS011;63557;52.302;7.964;2023-04-24T10:31:43;5.03;;;4.63;;
27580;SDS011;63557;52.302;7.964;2023-04-24T10:36:48;5.90;;;5.30;;
27580;SDS011;63557;52.302;7.964;2023-04-24T10:41:50;5.60;;;5.03;;
27580;SDS011;63557;52.302;7.964;2023-04-24T10:46:54;4.60;;;3.77;;
27580;SDS011;63557;52.302;7.964;2023-04-24T10:51:59;5.97;;;3.72;;
27580;SDS011;63557;52.302;7.964;2023-04-24T11:02:20;3.30;;;2.75;;
27580;SDS011;63557;52.302;7.964;2023-04-24T11:12:35;2.17;;;1.77;;
27580;SDS011;63557;52.302;7.964;2023-04-24T11:17:38;3.17;;;2.00;;
27580;SDS011;63557;52.302;7.964;2023-04-24T11:22:42;2.90;;;2.20;;
27580;SDS011;63557;52.302;7.964;2023-04-24T11:27:43;7.47;;;5.50;;
27580;SDS011;63557;52.302;7.964;2023-04-24T11:32:43;11.48;;;7.82;;
27580;SDS011;63557;52.302;7.964;2023-04-24T11:37:48;11.68;;;8.15;;
27580;SDS011;63557;52.302;7.964;2023-04-24T11:42:51;17.20;;;11.48;;
27580;SDS011;63557;52.302;7.964;2023-04-24T11:47:52;20.65;;;12.75;;
27580;SDS011;63557;52.302;7.964;2023-04-24T11:52:53;18.77;;;12.90;;
27580;SDS011;63557;52.302;7.964;2023-04-24T11:57:54;21.73;;;13.35;;
27580;SDS011;63557;52.302;7.964;2023-04-24T12:03:03;22.15;;;12.68;;
27580;SDS011;63557;52.302;7.964;2023-04-24T12:08:04;17.92;;;12.73;;
27580;SDS011;63557;52.302;7.964;2023-04-24T12:13:05;18.53;;;11.03;;
27580;SDS011;63557;52.302;7.964;2023-04-24T12:18:05;20.60;;;11.75;;
27580;SDS011;63557;52.302;7.964;2023-04-24T12:23:06;17.00;;;9.60;;
27580;SDS011;63557;52.302;7.964;2023-04-24T12:33:07;19.67;;;8.55;;
27580;SDS011;63557;52.302;7.964;2023-04-24T12:38:08;17.15;;;7.53;;
27580;SDS011;63557;52.302;7.964;2023-04-24T12:43:16;14.98;;;7.78;;
27580;SDS011;63557;52.302;7.964;2023-04-24T12:48:16;14.32;;;7.50;;
27580;SDS011;63557;52.302;7.964;2023-04-24T12:53:17;14.53;;;7.67;;
27580;SDS011;63557;52.302;7.964;2023-04-24T12:58:18;13.18;;;7.18;;
27580;SDS011;63557;52.302;7.964;2023-04-24T13:03:18;15.50;;;8.93;;
27580;SDS011;63557;52.302;7.964;2023-04-24T13:08:19;18.20;;;8.65;;
27580;SDS011;63557;52.302;7.964;2023-04-24T13:13:19;19.08;;;7.18;;
27580;SDS011;63557;52.302;7.964;2023-04-24T13:18:19;20.27;;;8.75;;
27580;SDS011;63557;52.302;7.964;2023-04-24T13:23:20;22.13;;;9.20;;
27580;SDS011;63557;52.302;7.964;2023-04-24T13:28:20;16.77;;;8.13;;
27580;SDS011;63557;52.302;7.964;2023-04-24T13:33:20;15.77;;;7.97;;
27580;SDS011;63557;52.302;7.964;2023-04-24T13:38:21;15.40;;;7.77;;
27580;SDS011;63557;52.302;7.964;2023-04-24T13:43:22;18.45;;;7.80;;
27580;SDS011;63557;52.302;7.964;2023-04-24T13:48:22;12.60;;;6.40;;
27580;SDS011;63557;52.302;7.964;2023-04-24T13:53:23;12.03;;;5.70;;
27580;SDS011;63557;52.302;7.964;2023-04-24T13:58:23;11.80;;;5.63;;
27580;SDS011;63557;52.302;7.964;2023-04-24T14:03:23;9.97;;;4.50;;
27580;SDS011;63557;52.302;7.964;2023-04-24T14:08:24;11.90;;;4.57;;
27580;SDS011;63557;52.302;7.964;2023-04-24T14:13:25;8.98;;;4.25;;
27580;SDS011;63557;52.302;7.964;2023-04-24T14:18:25;7.88;;;4.20;;
27580;SDS011;63557;52.302;7.964;2023-04-24T14:23:27;6.55;;;3.97;;
27580;SDS011;63557;52.302;7.964;2023-04-24T14:28:27;12.57;;;4.63;;
27580;SDS011;63557;52.302;7.964;2023-04-24T14:33:27;13.25;;;5.57;;
27580;SDS011;63557;52.302;7.964;2023-04-24T14:38:28;11.23;;;4.83;;
27580;SDS011;63557;52.302;7.964;2023-04-24T14:43:29;12.63;;;4.90;;
27580;SDS011;63557;52.302;7.964;2023-04-24T14:48:29;9.35;;;5.53;;
27580;SDS011;63557;52.302;7.964;2023-04-24T14:53:30;12.77;;;5.80;;
27580;SDS011;63557;52.302;7.964;2023-04-24T14:58:31;11.05;;;6.80;;
27580;SDS011;63557;52.302;7.964;2023-04-24T15:03:31;13.80;;;6.15;;
27580;SDS011;63557;52.302;7.964;2023-04-24T15:08:31;13.87;;;5.50;;
27580;SDS011;63557;52.302;7.964;2023-04-24T15:13:32;8.45;;;4.13;;
27580;SDS011;63557;52.302;7.964;2023-04-24T15:18:32;11.83;;;7.00;;
27580;SDS011;63557;52.302;7.964;2023-04-24T15:23:33;70.65;;;33.50;;
27580;SDS011;63557;52.302;7.964;2023-04-24T15:28:33;13.50;;;4.60;;
27580;SDS011;63557;52.302;7.964;2023-04-24T15:33:34;17.95;;;10.27;;
27580;SDS011;63557;52.302;7.964;2023-04-24T15:38:34;12.77;;;8.17;;
27580;SDS011;63557;52.302;7.964;2023-04-24T15:43:34;8.53;;;5.10;;
27580;SDS011;63557;52.302;7.964;2023-04-24T15:48:35;8.50;;;3.28;;
27580;SDS011;63557;52.302;7.964;2023-04-24T15:53:35;5.33;;;2.50;;
27580;SDS011;63557;52.302;7.964;2023-04-24T15:58:35;5.87;;;2.80;;
27580;SDS011;63557;52.302;7.964;2023-04-24T16:03:36;7.80;;;3.03;;
27580;SDS011;63557;52.302;7.964;2023-04-24T16:08:36;5.70;;;3.40;;
27580;SDS011;63557;52.302;7.964;2023-04-24T16:13:36;4.95;;;2.90;;
27580;SDS011;63557;52.302;7.964;2023-04-24T16:18:37;8.53;;;3.87;;
27580;SDS011;63557;52.302;7.964;2023-04-24T16:23:37;6.63;;;4.63;;
27580;SDS011;63557;52.302;7.964;2023-04-24T16:28:38;8.20;;;2.80;;
27580;SDS011;63557;52.302;7.964;2023-04-24T16:33:38;9.77;;;3.10;;
27580;SDS011;63557;52.302;7.964;2023-04-24T16:38:39;12.52;;;3.35;;
27580;SDS011;63557;52.302;7.964;2023-04-24T16:43:40;12.05;;;3.13;;
27580;SDS011;63557;52.302;7.964;2023-04-24T16:48:40;9.27;;;4.00;;
27580;SDS011;63557;52.302;7.964;2023-04-24T16:53:40;11.43;;;3.67;;
27580;SDS011;63557;52.302;7.964;2023-04-24T16:58:41;9.63;;;3.80;;
27580;SDS011;63557;52.302;7.964;2023-04-24T17:03:41;14.00;;;3.87;;
27580;SDS011;63557;52.302;7.964;2023-04-24T17:08:41;12.87;;;4.20;;
27580;SDS011;63557;52.302;7.964;2023-04-24T17:13:42;14.70;;;5.40;;
27580;SDS011;63557;52.302;7.964;2023-04-24T17:18:42;11.27;;;4.13;;
27580;SDS011;63557;52.302;7.964;2023-04-24T17:23:42;11.43;;;4.10;;
27580;SDS011;63557;52.302;7.964;2023-04-24T17:28:43;17.30;;;6.30;;
27580;SDS011;63557;52.302;7.964;2023-04-24T17:33:43;14.87;;;7.73;;
27580;SDS011;63557;52.302;7.964;2023-04-24T17:38:44;13.18;;;4.97;;
27580;SDS011;63557;52.302;7.964;2023-04-24T17:43:44;13.85;;;5.47;;
27580;SDS011;63557;52.302;7.964;2023-04-24T17:48:44;13.15;;;4.78;;
27580;SDS011;63557;52.302;7.964;2023-04-24T17:53:45;20.38;;;6.03;;
27580;SDS011;63557;52.302;7.964;2023-04-24T17:58:45;18.67;;;5.97;;
27580;SDS011;63557;52.302;7.964;2023-04-24T18:03:45;12.32;;;5.25;;
27580;SDS011;63557;52.302;7.964;2023-04-24T18:08:46;12.97;;;4.27;;
27580;SDS011;63557;52.302;7.964;2023-04-24T18:13:46;14.13;;;4.47;;
27580;SDS011;63557;52.302;7.964;2023-04-24T18:18:47;11.00;;;5.00;;
27580;SDS011;63557;52.302;7.964;2023-04-24T18:23:48;11.97;;;4.93;;
27580;SDS011;63557;52.302;7.964;2023-04-24T18:28:48;10.77;;;4.75;;
27580;SDS011;63557;52.302;7.964;2023-04-24T18:33:49;13.33;;;4.40;;
27580;SDS011;63557;52.302;7.964;2023-04-24T18:38:49;15.13;;;5.15;;
27580;SDS011;63557;52.302;7.964;2023-04-24T18:43:49;12.57;;;4.97;;
27580;SDS011;63557;52.302;7.964;2023-04-24T18:48:51;14.88;;;5.65;;
27580;SDS011;63557;52.302;7.964;2023-04-24T18:53:51;18.20;;;6.15;;
27580;SDS011;63557;52.302;7.964;2023-04-24T18:58:51;11.83;;;5.50;;
27580;SDS011;63557;52.302;7.964;2023-04-24T19:03:54;18.73;;;5.97;;
27580;SDS011;63557;52.302;7.964;2023-04-24T19:08:55;12.65;;;4.93;;
27580;SDS011;63557;52.302;7.964;2023-04-24T19:13:56;13.27;;;5.10;;
27580;SDS011;63557;52.302;7.964;2023-04-24T19:18:58;15.32;;;5.25;;
27580;SDS011;63557;52.302;7.964;2023-04-24T19:23:58;18.27;;;5.55;;
27580;SDS011;63557;52.302;7.964;2023-04-24T19:28:58;15.13;;;5.87;;
27580;SDS011;63557;52.302;7.964;2023-04-24T19:33:59;16.73;;;6.28;;
27580;SDS011;63557;52.302;7.964;2023-04-24T19:38:59;15.13;;;5.60;;
27580;SDS011;63557;52.302;7.964;2023-04-24T19:44:00;16.63;;;5.93;;
27580;SDS011;63557;52.302;7.964;2023-04-24T19:49:00;18.33;;;5.53;;
27580;SDS011;63557;52.302;7.964;2023-04-24T19:54:01;15.15;;;5.50;;
27580;SDS011;63557;52.302;7.964;2023-04-24T19:59:02;17.40;;;5.28;;
27580;SDS011;63557;52.302;7.964;2023-04-24T20:04:03;14.30;;;5.35;;
27580;SDS011;63557;52.302;7.964;2023-04-24T20:09:06;16.55;;;5.93;;
27580;SDS011;63557;52.302;7.964;2023-04-24T20:14:06;22.87;;;7.43;;
27580;SDS011;63557;52.302;7.964;2023-04-24T20:19:07;12.00;;;5.63;;
27580;SDS011;63557;52.302;7.964;2023-04-24T20:24:07;19.00;;;6.43;;
27580;SDS011;63557;52.302;7.964;2023-04-24T20:29:09;17.25;;;6.30;;
27580;SDS011;63557;52.302;7.964;2023-04-24T20:34:10;12.38;;;6.10;;
27580;SDS011;63557;52.302;7.964;2023-04-24T20:39:11;22.23;;;7.10;;
27580;SDS011;63557;52.302;7.964;2023-04-24T20:44:11;19.65;;;7.40;;
27580;SDS011;63557;52.302;7.964;2023-04-24T20:49:12;18.08;;;6.45;;
27580;SDS011;63557;52.302;7.964;2023-04-24T20:54:12;19.15;;;6.22;;
27580;SDS011;63557;52.302;7.964;2023-04-24T20:59:13;21.08;;;7.00;;
27580;SDS011;63557;52.302;7.964;2023-04-24T21:04:14;18.00;;;7.07;;
27580;SDS011;63557;52.302;7.964;2023-04-24T21:09:14;17.63;;;6.95;;
27580;SDS011;63557;52.302;7.964;2023-04-24T21:14:15;19.48;;;6.60;;
27580;SDS011;63557;52.302;7.964;2023-04-24T21:19:16;18.02;;;6.60;;
27580;SDS011;63557;52.302;7.964;2023-04-24T21:24:16;20.60;;;7.63;;
27580;SDS011;63557;52.302;7.964;2023-04-24T21:29:17;16.08;;;7.78;;
27580;SDS011;63557;52.302;7.964;2023-04-24T21:34:18;21.13;;;7.43;;
27580;SDS011;63557;52.302;7.964;2023-04-24T21:39:18;20.35;;;6.85;;
27580;SDS011;63557;52.302;7.964;2023-04-24T21:44:19;18.48;;;7.88;;
27580;SDS011;63557;52.302;7.964;2023-04-24T21:49:20;20.20;;;7.45;;
27580;SDS011;63557;52.302;7.964;2023-04-24T21:54:20;24.70;;;8.05;;
27580;SDS011;63557;52.302;7.964;2023-04-24T21:59:21;20.80;;;8.23;;
27580;SDS011;63557;52.302;7.964;2023-04-24T22:04:22;30.67;;;8.38;;
27580;SDS011;63557;52.302;7.964;2023-04-24T22:09:22;29.25;;;8.60;;
27580;SDS011;63557;52.302;7.964;2023-04-24T22:14:23;29.10;;;9.18;;
27580;SDS011;63557;52.302;7.964;2023-04-24T22:19:23;24.73;;;8.37;;
27580;SDS011;63557;52.302;7.964;2023-04-24T22:24:25;25.55;;;9.02;;
27580;SDS011;63557;52.302;7.964;2023-04-24T22:29:25;26.70;;;10.10;;
27580;SDS011;63557;52.302;7.964;2023-04-24T22:34:26;25.58;;;8.13;;
27580;SDS011;63557;52.302;7.964;2023-04-24T22:39:26;27.85;;;9.35;;
27580;SDS011;63557;52.302;7.964;2023-04-24T22:44:27;24.33;;;8.65;;
27580;SDS011;63557;52.302;7.964;2023-04-24T22:49:27;22.08;;;9.48;;
27580;SDS011;63557;52.302;7.964;2023-04-24T22:54:27;19.17;;;7.83;;
27580;SDS011;63557;52.302;7.964;2023-04-24T22:59:28;23.17;;;7.63;;
27580;SDS011;63557;52.302;7.964;2023-04-24T23:04:28;23.83;;;8.27;;
27580;SDS011;63557;52.302;7.964;2023-04-24T23:09:29;21.00;;;7.45;;
27580;SDS011;63557;52.302;7.964;2023-04-24T23:14:29;22.77;;;8.52;;
27580;SDS011;63557;52.302;7.964;2023-04-24T23:19:31;23.42;;;8.13;;
27580;SDS011;63557;52.302;7.964;2023-04-24T23:24:32;22.52;;;7.18;;
27580;SDS011;63557;52.302;7.964;2023-04-24T23:29:33;20.40;;;7.78;;
27580;SDS011;63557;52.302;7.964;2023-04-24T23:34:33;25.40;;;8.37;;
27580;SDS011;63557;52.302;7.964;2023-04-24T23:39:37;22.77;;;8.25;;
27580;SDS011;63557;52.302;7.964;2023-04-24T23:44:37;30.85;;;8.82;;
27580;SDS011;63557;52.302;7.964;2023-04-24T23:49:37;25.58;;;8.07;;
27580;SDS011;63557;52.302;7.964;2023-04-24T23:54:38;18.92;;;8.43;;
27580;SDS011;63557;52.302;7.964;2023-04-24T23:59:38;21.47;;;8.97;;
